AirNav   ATP
 
 747 users online  

8G8 Koons Airport
Salem, Ohio, USA

GOING TO SALEM?


FAA INFORMATION EFFECTIVE 08 NOVEMBER 2018

Location

FAA Identifier: 8G8
Lat/Long: 40-53-00.2120N / 080-52-59.3050W
40-53.003533N / 080-52.988417W
40.8833922 / -80.8831403
(estimated)
Elevation: 1327 ft. / 404 m (estimated)
Variation: 07W (1985)
From city: 2 miles SW of SALEM, OH
Time zone: UTC -5 (UTC -4 during Daylight Saving Time)
Zip code: 44460

Airport Operations

Airport use: Open to the public
Control tower: no
ARTCC: CLEVELAND CENTER
FSS: CLEVELAND FLIGHT SERVICE STATION
NOTAMs facility: CLE (NOTAM-D service available)
Attendance: DAYLIGHT HOURS
Wind indicator: yes
Segmented circle: no

Airport Communications

CTAF: 122.9

Nearby radio navigation aids

VOR radial/distance  VOR name  Freq  Var
ACOr137/19.7AKRON VOR/DME114.4004W
BSVr075/26.4BRIGGS VOR/DME112.4004W
YNGr204/28.5YOUNGSTOWN VORTAC109.0005W
EWCr285/30.7ELLWOOD CITY VOR/DME115.8008W

 
NDB name  Hdg/Dist  Freq  Var  ID
CASTLE257/22.827209WUCP ..- -.-. .--.
CADIZ016/39.223907WCFX -.-. ..-. -..-

Airport Services

Parking: tiedowns
Airframe service: NONE
Powerplant service: NONE

Runway Information

Runway 9/27

Dimensions: 1850 x 100 ft. / 564 x 30 m
Surface: turf, in good condition
RUNWAY 9  RUNWAY 27
Latitude: 40-53.008667N40-52.998167N
Longitude: 080-53.188833W080-52.787667W
Elevation: 1327.0 ft.1327.0 ft.
Gradient: 1.4%1.4%
Traffic pattern: leftright
Runway end identifier lights: nono
Obstructions: 8 ft. crops, 125 ft. both sides of centerline
RWY 09: OBST CLNS SLOPE 7:1, DUE TO 55-FT TREE, 385-FT FM RWY 09, 55-FT L
70 ft. trees, 50 ft. from runway, 75 ft. left of centerline
RWY 27: OBST CLNS SLOPE 1:1, DUE TO 75-FT TREES 135-FT FM, RWY 27, 60-FT L

Airport Ownership and Management from official FAA records

Ownership: Privately-owned
Owner: DAVID & HARRY KOONS
1760 ST RTE 9
SALEM, OH 44460
Phone 330-337-7303
Manager: DAVID & HARRY KOONS
1760 ST RTE 9
SALEM, OH 44460
Phone 330-337-7303
ADNL CTC: 330-337-1780

Airport Operational Statistics

Aircraft based on the field: 9
Single engine airplanes: 7
Ultralights: 2
    
Aircraft operations: avg 49/week *
98% local general aviation
2% transient general aviation
<1% military
* for 12-month period ending 26 August 2017

Additional Remarks

FOR IFR CLEARANCE CTC CLEVELAND ARTCC (ZOB) 120.775/298.95 OR CALL ZOB 440-774-0489.
DEER, BIRDS & OTHER WILDLIFE ON & INVOF AIRPORT

Instrument Procedures

There are no published instrument procedures at 8G8.

Some nearby airports with instrument procedures:

38D - Salem Airpark Inc (4 nm N)
3G6 - Tri-City Airport (5 nm W)
4G4 - Youngstown Elser Metro Airport (10 nm NE)
02G - Columbiana County Airport (17 nm SE)
KTSO - Carroll County-Tolson Airport (21 nm SW)
 
Loc | Ops | Rwys | IFR | FBO | Links
Com | Nav | Svcs | Stats | Notes


 
Area around 8G8 (Koons Airport)
 
Road maps at: MapQuest Bing Google
 
Aerial photo
WARNING: Photo may not be current or correct
Aerial photo of 8G8 (Koons Airport)
Photo by Rick Hunt
Photo taken 22-Mar-2015
looking south.

Do you have a better or more recent aerial photo of Koons Airport that you would like to share? If so, please send us your photo.

 
Sectional chart

 
Airport distance calculator
Flying to Koons Airport? Find the distance to fly.

From to 8G8

Sunrise and sunset
Times for 17-Nov-2018
 Local
(UTC-5)
 Zulu
(UTC)
Morning civil twilight06:4511:45
Sunrise07:1412:14
Sunset17:0322:03
Evening civil twilight17:3322:33

Current date and time
Zulu (UTC)  18-Nov-2018 02:57:57
Local (UTC-5)  17-Nov-2018 21:57:57
 
METAR
KUCP 
23nm E 
180156Z AUTO 00000KT 10SM UP OVC020 02/01 A3031 RMK AO2 SLP290 P0000 T00220006
KBVI 
23nm E 
172147Z 00000KT 7SM OVC024 03/01 A3026 RMK LAST
KYNG 
24nm NE 
180251Z 10003KT 5SM -SN BR SCT017 BKN024 OVC035 01/00 A3029 RMK AO2 SLP269 P0000 60000 T00110000 50004 $
KPOV 
26nm NW 
180236Z AUTO 00000KT 7SM OVC021 01/00 A3029 RMK AO2 T00070001 PWINO
KCAK 
26nm W 
180251Z 07005KT 3SM -SN BR OVC016 02/00 A3029 RMK AO2 SFC VIS 4 SLP267 P0000 60000 T00170000 51003
KAKR 
28nm W 
180254Z AUTO 00000KT 6SM BR OVC022 03/01 A3029 RMK AO2 SLP265 60000 T00280006 50002
KPHD 
35nm SW 
180253Z AUTO 00000KT 8SM OVC028 04/01 A3030 RMK AO2 SLP267 T00390011 50003
KPIT 
36nm SE 
180251Z 00000KT 10SM OVC025 03/01 A3028 RMK AO2 SLP273 T00280011 50003
KBTP 
43nm E 
180156Z AUTO 02003KT 8SM -RA OVC017 01/00 A3030 RMK AO2 RAB18UPB40E47 SLP280 P0000 T00110000 FZRANO
KHLG 
44nm S 
180253Z AUTO 09004KT 10SM OVC110 02/M01 A3028 RMK AO2 SLP267 T00221006 51002
TAF
KBVI 
23nm E 
171905Z 1719/1818 27005KT P6SM OVC025 FM180500 00000KT 5SM BR OVC015 FM181600 00000KT P6SM OVC020
KYNG 
24nm NE 
171738Z 1718/1818 27006KT P6SM OVC015 FM180200 VRB03KT P6SM OVC015 FM180600 05005KT P6SM OVC008 FM181200 14005KT P6SM VCSH OVC008
KCAK 
26nm W 
171738Z 1718/1818 26006KT P6SM OVC015 FM180200 VRB03KT P6SM OVC015 FM180600 08005KT P6SM OVC008 FM181200 12005KT P6SM VCSH OVC008
NOTAMs
Click for the latest NOTAMs
NOTAMs are issued by the DoD/FAA and will open in a separate window not controlled by AirNav.

 

 
 

Would you like to see your business listed on this page?

 If your business provides an interesting product or service to pilots, flight crews, aircraft, or users of the Koons Airport, you should consider listing it here.  To start the listing process, click on the button below
 
Add a business
 

Other Pages about Koons Airport

Update a link
 
Copyright © AirNav, LLC. All rights reserved. Privacy Policy  Contact